createdAt,value
2018-07-23T00:02:18.088Z,20.59
2018-07-23T00:05:22.296Z,20.55
2018-07-23T00:08:25.145Z,20.57
2018-07-23T00:11:27.235Z,20.58
2018-07-23T00:14:29.359Z,20.59
2018-07-23T00:17:32.456Z,20.60
2018-07-23T00:20:34.405Z,20.60
2018-07-23T00:23:36.540Z,20.55
2018-07-23T00:26:38.572Z,20.54
2018-07-23T00:29:40.607Z,20.54
2018-07-23T00:32:42.739Z,20.55
2018-07-23T00:35:44.900Z,20.57
2018-07-23T00:38:46.975Z,20.58
2018-07-23T00:41:49.125Z,20.55
2018-07-23T00:44:51.205Z,20.54
2018-07-23T00:47:54.038Z,20.51
2018-07-23T00:50:56.262Z,20.42
2018-07-23T00:53:58.340Z,20.34
2018-07-23T00:57:01.423Z,20.29
2018-07-23T01:00:04.311Z,20.25
2018-07-23T01:03:06.824Z,20.28
2018-07-23T01:06:08.869Z,20.34
2018-07-23T01:09:11.336Z,20.38
2018-07-23T01:12:25.459Z,20.34
2018-07-23T01:15:27.615Z,20.20
2018-07-23T01:18:29.732Z,20.23
2018-07-23T01:21:31.848Z,20.29
2018-07-23T01:24:34.996Z,20.31
2018-07-23T01:27:37.038Z,20.30
2018-07-23T01:30:39.233Z,20.29
2018-07-23T01:33:43.407Z,20.25
2018-07-23T01:36:45.435Z,20.14
2018-07-23T01:39:47.604Z,20.06
2018-07-23T01:42:51.252Z,20.00
2018-07-23T01:45:53.272Z,20.06
2018-07-23T01:48:55.340Z,20.11
2018-07-23T01:51:57.405Z,20.12
2018-07-23T01:54:59.647Z,20.04
2018-07-23T01:58:01.779Z,19.95
2018-07-23T02:01:06.638Z,19.99
2018-07-23T02:04:08.859Z,20.04
2018-07-23T02:07:12.056Z,20.06
2018-07-23T02:10:14.157Z,20.04
2018-07-23T02:13:16.149Z,19.98
2018-07-23T02:16:18.255Z,19.82
2018-07-23T02:19:20.369Z,19.72
2018-07-23T02:22:22.523Z,19.77
2018-07-23T02:25:24.608Z,19.82
2018-07-23T02:28:26.651Z,19.85
2018-07-23T02:31:28.727Z,19.87
2018-07-23T02:34:30.911Z,19.84
2018-07-23T02:37:33.048Z,19.86
2018-07-23T02:40:35.134Z,19.86
2018-07-23T02:43:37.275Z,19.74
2018-07-23T02:46:39.383Z,19.70
2018-07-23T02:49:41.434Z,19.70
2018-07-23T02:52:43.421Z,19.69
2018-07-23T02:55:45.497Z,19.71
2018-07-23T02:58:47.580Z,19.74
2018-07-23T03:01:49.771Z,19.73
2018-07-23T03:04:54.478Z,19.67
2018-07-23T03:07:56.610Z,19.64
2018-07-23T03:10:58.718Z,19.59
2018-07-23T03:14:00.707Z,19.54
2018-07-23T03:17:02.716Z,19.52
2018-07-23T03:20:04.991Z,19.50
2018-07-23T03:23:07.004Z,19.50
2018-07-23T03:26:09.016Z,19.48
2018-07-23T03:29:11.097Z,19.42
2018-07-23T03:32:13.261Z,19.34
2018-07-23T03:35:15.361Z,19.39
2018-07-23T03:38:17.552Z,19.41
2018-07-23T03:41:19.734Z,19.46
2018-07-23T03:44:21.823Z,19.46
2018-07-23T03:47:23.927Z,19.47
2018-07-23T03:50:26.299Z,19.47
2018-07-23T03:53:28.401Z,19.46
2018-07-23T03:56:30.524Z,19.45
2018-07-23T03:59:32.631Z,19.49
2018-07-23T04:02:34.623Z,19.51
2018-07-23T04:05:38.724Z,19.51
2018-07-23T04:08:40.759Z,19.44
2018-07-23T04:11:43.238Z,19.43
2018-07-23T04:14:45.307Z,19.40
2018-07-23T04:17:51.472Z,19.42
2018-07-23T04:20:53.568Z,19.44
2018-07-23T04:23:55.657Z,19.47
2018-07-23T04:26:57.922Z,19.49
2018-07-23T04:30:00.057Z,19.51
2018-07-23T04:33:02.048Z,19.57
2018-07-23T04:36:04.179Z,19.60
2018-07-23T04:39:06.624Z,19.60
2018-07-23T04:42:08.797Z,19.61
2018-07-23T04:45:10.898Z,19.65
2018-07-23T04:48:12.984Z,19.69
2018-07-23T04:51:15.106Z,19.71
2018-07-23T04:54:17.373Z,19.70
2018-07-23T04:57:19.505Z,19.70
2018-07-23T05:00:21.591Z,19.67
2018-07-23T05:03:23.645Z,19.60
2018-07-23T05:06:26.563Z,19.52
2018-07-23T05:09:28.636Z,19.47
2018-07-23T05:12:30.875Z,19.49
2018-07-23T05:15:32.978Z,19.47
2018-07-23T05:18:35.051Z,19.51
2018-07-23T05:21:38.218Z,19.55
2018-07-23T05:24:42.378Z,19.59
2018-07-23T05:27:44.499Z,19.58
2018-07-23T05:30:46.451Z,19.62
2018-07-23T05:33:48.406Z,19.70
2018-07-23T05:36:50.536Z,19.77
2018-07-23T05:39:52.683Z,19.84
2018-07-23T05:42:55.416Z,19.92
2018-07-23T05:45:57.453Z,20.02
2018-07-23T05:48:59.559Z,20.09
2018-07-23T05:52:01.687Z,20.16
2018-07-23T05:55:03.842Z,20.24
2018-07-23T05:58:05.840Z,20.16
2018-07-23T06:01:08.012Z,20.06
2018-07-23T06:04:10.083Z,19.98
2018-07-23T06:07:12.051Z,19.96
2018-07-23T06:10:14.203Z,19.99
2018-07-23T06:13:16.202Z,20.14
2018-07-23T06:16:18.271Z,20.17
2018-07-23T06:19:20.383Z,20.19
2018-07-23T06:22:22.523Z,20.15
2018-07-23T06:25:25.243Z,20.10
2018-07-23T06:28:27.478Z,20.17
2018-07-23T06:31:29.549Z,20.17
2018-07-23T06:34:31.807Z,20.27
2018-07-23T06:37:34.302Z,20.47
2018-07-23T06:40:36.354Z,20.58
2018-07-23T06:43:38.514Z,20.76
2018-07-23T06:46:40.700Z,20.63
2018-07-23T06:49:42.772Z,20.65
2018-07-23T06:52:44.935Z,20.57
2018-07-23T06:55:47.115Z,20.53
2018-07-23T06:58:49.158Z,20.59
2018-07-23T07:01:51.233Z,20.71
2018-07-23T07:04:53.320Z,20.66
2018-07-23T07:07:56.385Z,20.68
2018-07-23T07:10:58.480Z,20.80
2018-07-23T07:14:00.545Z,20.82
2018-07-23T07:17:02.648Z,20.95
2018-07-23T07:20:04.924Z,21.23
2018-07-23T07:23:07.062Z,21.49
2018-07-23T07:26:09.125Z,21.42
2018-07-23T07:29:22.563Z,21.26
2018-07-23T07:32:24.664Z,21.06
2018-07-23T07:35:27.462Z,21.28
2018-07-23T07:38:29.512Z,21.51
2018-07-23T07:41:31.660Z,21.64
2018-07-23T07:44:33.695Z,21.75
2018-07-23T07:47:35.700Z,21.69
2018-07-23T07:50:37.772Z,21.81
2018-07-23T07:53:39.994Z,21.94
2018-07-23T07:56:42.114Z,21.93
2018-07-23T07:59:45.214Z,22.01
2018-07-23T08:02:47.280Z,22.17
2018-07-23T08:05:49.451Z,22.27
2018-07-23T08:08:51.561Z,22.35
2018-07-23T08:11:53.579Z,22.25
2018-07-23T08:14:55.654Z,22.26
2018-07-23T08:17:59.191Z,22.41
2018-07-23T08:21:01.355Z,22.58
2018-07-23T08:24:03.397Z,22.73
2018-07-23T08:27:05.672Z,22.87
2018-07-23T08:30:07.787Z,22.88
2018-07-23T08:33:09.901Z,22.95
2018-07-23T08:36:11.994Z,22.90
2018-07-23T08:39:14.138Z,23.20
2018-07-23T08:42:16.361Z,23.51
2018-07-23T08:45:20.446Z,23.66
2018-07-23T08:48:22.396Z,23.80
2018-07-23T08:51:24.613Z,23.61
2018-07-23T08:54:28.771Z,23.51
2018-07-23T08:57:30.875Z,23.46
2018-07-23T09:00:32.979Z,23.86
2018-07-23T09:03:34.988Z,24.09
2018-07-23T09:06:37.067Z,24.29
2018-07-23T09:09:39.111Z,24.30
2018-07-23T09:12:41.205Z,24.07
2018-07-23T09:15:43.289Z,24.08
2018-07-23T09:18:45.314Z,24.27
2018-07-23T09:21:47.544Z,24.13
2018-07-23T09:24:50.321Z,24.29
2018-07-23T09:27:52.446Z,24.40
2018-07-23T09:30:55.610Z,24.63
2018-07-23T09:33:57.667Z,25.07
2018-07-23T09:37:03.405Z,25.27
2018-07-23T09:40:05.567Z,25.53
2018-07-23T09:43:07.735Z,25.30
2018-07-23T09:46:09.820Z,25.33
2018-07-23T09:49:12.251Z,25.27
2018-07-23T09:52:14.435Z,25.38
2018-07-23T09:55:16.529Z,25.70
2018-07-23T09:58:18.502Z,25.92
2018-07-23T10:01:20.567Z,26.06
2018-07-23T10:04:22.761Z,26.06
2018-07-23T10:07:24.909Z,26.23
2018-07-23T10:10:28.015Z,26.19
2018-07-23T10:13:30.135Z,25.67
2018-07-23T10:16:32.328Z,25.74
2018-07-23T10:19:34.311Z,26.25
2018-07-23T10:22:37.442Z,26.64
2018-07-23T10:25:40.670Z,26.78
2018-07-23T10:28:42.604Z,26.77
2018-07-23T10:31:45.753Z,26.99
2018-07-23T10:34:47.833Z,26.65
2018-07-23T10:37:51.339Z,26.71
2018-07-23T10:40:53.415Z,26.84
2018-07-23T10:43:55.367Z,27.16
2018-07-23T10:46:57.660Z,27.34
2018-07-23T10:50:01.000Z,27.32
2018-07-23T10:53:03.173Z,27.40
2018-07-23T10:56:05.561Z,27.41
2018-07-23T10:59:07.660Z,27.35
2018-07-23T11:02:09.722Z,27.60
2018-07-23T11:05:11.903Z,27.54
2018-07-23T11:08:13.951Z,27.73
2018-07-23T11:11:16.137Z,27.91
2018-07-23T11:14:18.180Z,28.13
2018-07-23T11:17:21.204Z,28.29
2018-07-23T11:20:23.263Z,28.40
2018-07-23T11:23:25.447Z,28.49
2018-07-23T11:26:27.686Z,28.39
2018-07-23T11:29:29.597Z,28.26
2018-07-23T11:32:31.948Z,28.23
2018-07-23T11:35:34.027Z,28.58
2018-07-23T11:38:36.205Z,28.56
2018-07-23T11:41:38.300Z,28.67
2018-07-23T11:44:40.323Z,28.65
2018-07-23T11:47:42.416Z,28.76
2018-07-23T11:50:44.520Z,28.79
2018-07-23T11:53:46.590Z,28.59
2018-07-23T11:56:48.801Z,28.77
2018-07-23T11:59:50.873Z,28.86
2018-07-23T12:02:52.866Z,28.90
2018-07-23T12:05:54.949Z,29.01
2018-07-23T12:08:57.013Z,29.15
2018-07-23T12:11:59.177Z,29.24
2018-07-23T12:15:01.254Z,29.56
2018-07-23T12:18:03.488Z,29.76
2018-07-23T12:21:05.636Z,29.64
2018-07-23T12:24:07.791Z,29.83
2018-07-23T12:27:09.929Z,29.90
2018-07-23T12:30:11.994Z,30.03
2018-07-23T12:33:14.049Z,30.22
2018-07-23T12:36:16.233Z,30.31
2018-07-23T12:39:18.347Z,30.29
2018-07-23T12:42:20.276Z,30.23
2018-07-23T12:45:22.719Z,29.69
2018-07-23T12:48:24.820Z,29.63
2018-07-23T12:51:26.977Z,29.53
2018-07-23T12:54:29.150Z,29.41
2018-07-23T12:57:31.266Z,29.33
2018-07-23T13:00:33.397Z,29.22
2018-07-23T13:03:35.668Z,29.62
2018-07-23T13:06:37.691Z,29.61
2018-07-23T13:09:39.704Z,29.64
2018-07-23T13:12:41.700Z,29.38
2018-07-23T13:15:43.851Z,29.19
2018-07-23T13:18:45.930Z,29.26
2018-07-23T13:21:48.047Z,29.48
2018-07-23T13:24:50.304Z,29.63
2018-07-23T13:27:53.733Z,29.84
2018-07-23T13:30:55.930Z,29.71
2018-07-23T13:33:58.304Z,29.71
2018-07-23T13:37:00.407Z,29.96
2018-07-23T13:40:02.527Z,30.32
2018-07-23T13:43:04.731Z,30.28
2018-07-23T13:46:06.842Z,30.37
2018-07-23T13:49:08.989Z,30.26
2018-07-23T13:52:10.959Z,30.28
2018-07-23T13:55:13.109Z,30.47
2018-07-23T13:58:15.255Z,30.36
2018-07-23T14:01:17.444Z,29.91
2018-07-23T14:04:19.555Z,30.29
2018-07-23T14:07:22.468Z,30.37
2018-07-23T14:10:24.617Z,30.57
2018-07-23T14:13:26.756Z,30.61
2018-07-23T14:16:28.812Z,30.90
2018-07-23T14:19:30.864Z,30.41
2018-07-23T14:22:33.167Z,30.61
2018-07-23T14:25:35.334Z,30.93
2018-07-23T14:28:37.405Z,30.93
2018-07-23T14:31:39.570Z,31.01
2018-07-23T14:34:41.648Z,31.29
2018-07-23T14:37:43.818Z,31.59
2018-07-23T14:40:45.968Z,31.81
2018-07-23T14:43:48.032Z,31.77
2018-07-23T14:46:50.103Z,31.81
2018-07-23T14:49:53.851Z,31.69
2018-07-23T14:52:55.880Z,31.80
2018-07-23T14:55:57.971Z,31.76
2018-07-23T14:59:00.029Z,31.69
2018-07-23T15:02:02.036Z,31.54
2018-07-23T15:05:04.388Z,31.64
2018-07-23T15:08:06.441Z,31.75
2018-07-23T15:11:08.598Z,31.84
2018-07-23T15:14:10.688Z,31.82
2018-07-23T15:17:13.816Z,31.14
2018-07-23T15:20:15.924Z,31.08
2018-07-23T15:23:18.007Z,30.75
2018-07-23T15:26:20.139Z,30.70
2018-07-23T15:29:23.119Z,30.90
2018-07-23T15:32:25.141Z,30.95
2018-07-23T15:35:29.271Z,30.92
2018-07-23T15:38:31.458Z,31.09
2018-07-23T15:41:33.475Z,31.16
2018-07-23T15:44:35.839Z,31.39
2018-07-23T15:47:37.670Z,31.60
2018-07-23T15:50:39.815Z,31.49
2018-07-23T15:53:41.997Z,31.51
2018-07-23T15:56:44.071Z,31.16
2018-07-23T15:59:46.158Z,31.24
2018-07-23T16:02:49.316Z,31.27
2018-07-23T16:05:51.952Z,31.37
2018-07-23T16:08:54.075Z,31.39
2018-07-23T16:11:56.027Z,31.53
2018-07-23T16:14:58.175Z,31.48
2018-07-23T16:18:00.134Z,31.43
2018-07-23T16:21:02.236Z,31.17
2018-07-23T16:24:04.348Z,30.74
2018-07-23T16:27:06.483Z,30.83
2018-07-23T16:30:09.304Z,31.04
2018-07-23T16:33:11.318Z,31.04
2018-07-23T16:36:13.514Z,31.02
2018-07-23T16:39:18.482Z,30.79
2018-07-23T16:42:20.794Z,31.03
2018-07-23T16:45:23.197Z,31.21
2018-07-23T16:48:25.470Z,31.22
2018-07-23T16:51:27.725Z,31.29
2018-07-23T16:54:29.823Z,31.35
2018-07-23T16:57:32.107Z,31.23
2018-07-23T17:00:34.325Z,31.26
2018-07-23T17:03:36.440Z,31.14
2018-07-23T17:06:38.693Z,31.11
2018-07-23T17:09:40.978Z,31.11
2018-07-23T17:12:43.103Z,30.92
2018-07-23T17:15:45.549Z,30.68
2018-07-23T17:18:48.023Z,30.80
2018-07-23T17:21:50.440Z,30.70
2018-07-23T17:24:53.460Z,30.73
2018-07-23T17:27:56.607Z,30.81
2018-07-23T17:30:59.042Z,30.62
2018-07-23T17:34:01.565Z,30.68
2018-07-23T17:37:04.024Z,30.52
2018-07-23T17:40:06.612Z,30.54
2018-07-23T17:43:08.681Z,30.48
2018-07-23T17:46:10.703Z,30.27
2018-07-23T17:49:12.721Z,30.23
2018-07-23T17:52:15.139Z,30.08
2018-07-23T17:55:17.224Z,29.94
2018-07-23T17:58:19.294Z,29.97
2018-07-23T18:01:22.784Z,30.08
2018-07-23T18:04:25.180Z,30.00
2018-07-23T18:07:27.726Z,29.98
2018-07-23T18:10:30.258Z,29.95
2018-07-23T18:13:32.383Z,29.96
2018-07-23T18:16:34.832Z,29.97
2018-07-23T18:19:36.904Z,30.03
2018-07-23T18:22:46.791Z,29.92
2018-07-23T18:25:49.391Z,29.88
2018-07-23T18:28:51.387Z,29.82
2018-07-23T18:31:53.491Z,29.76
2018-07-23T18:34:55.726Z,29.65
2018-07-23T18:37:57.879Z,29.55
2018-07-23T18:40:59.943Z,29.47
2018-07-23T18:44:01.888Z,29.38
2018-07-23T18:47:04.211Z,29.32
2018-07-23T18:50:07.039Z,29.24
2018-07-23T18:53:09.619Z,29.14
2018-07-23T18:56:11.585Z,29.08
2018-07-23T18:59:13.833Z,29.00
2018-07-23T19:02:17.023Z,28.93
2018-07-23T19:05:19.090Z,28.80
2018-07-23T19:08:21.170Z,28.69
2018-07-23T19:11:23.318Z,28.56
2018-07-23T19:14:25.458Z,28.43
2018-07-23T19:17:27.627Z,28.31
2018-07-23T19:20:31.183Z,28.17
2018-07-23T19:23:33.231Z,28.03
2018-07-23T19:26:35.499Z,27.92
2018-07-23T19:29:37.536Z,27.70
2018-07-23T19:32:39.795Z,27.59
2018-07-23T19:35:41.847Z,27.58
2018-07-23T19:38:44.051Z,27.54
2018-07-23T19:41:46.249Z,27.51
2018-07-23T19:44:48.231Z,27.48
2018-07-23T19:47:50.522Z,27.43
2018-07-23T19:50:52.499Z,27.38
2018-07-23T19:53:56.743Z,27.32
2018-07-23T19:56:58.896Z,27.27
2018-07-23T20:00:00.991Z,27.17
2018-07-23T20:03:03.074Z,27.15
2018-07-23T20:06:05.408Z,26.98
2018-07-23T20:09:08.802Z,26.88
2018-07-23T20:12:10.836Z,26.80
2018-07-23T20:15:13.253Z,26.73
2018-07-23T20:18:15.398Z,26.62
2018-07-23T20:21:17.519Z,26.59
2018-07-23T20:24:19.651Z,26.54
2018-07-23T20:27:21.703Z,26.51
2018-07-23T20:30:23.898Z,26.48
2018-07-23T20:33:26.643Z,26.42
2018-07-23T20:36:28.843Z,26.30
2018-07-23T20:39:30.919Z,26.16
2018-07-23T20:42:33.002Z,26.10
2018-07-23T20:45:35.079Z,25.92
2018-07-23T20:48:37.039Z,25.75
2018-07-23T20:51:39.160Z,25.55
2018-07-23T20:54:41.255Z,25.29
2018-07-23T20:57:43.356Z,25.17
2018-07-23T21:00:45.627Z,25.12
2018-07-23T21:03:47.841Z,25.06
2018-07-23T21:06:50.094Z,24.74
2018-07-23T21:09:52.172Z,24.50
2018-07-23T21:12:55.267Z,24.58
2018-07-23T21:15:57.415Z,24.72
2018-07-23T21:19:04.592Z,24.80
2018-07-23T21:22:06.675Z,24.73
2018-07-23T21:25:08.807Z,24.71
2018-07-23T21:28:10.769Z,24.63
2018-07-23T21:31:12.832Z,24.62
2018-07-23T21:34:14.950Z,24.69
2018-07-23T21:37:17.053Z,24.68
2018-07-23T21:40:19.072Z,24.56
2018-07-23T21:43:21.162Z,24.65
2018-07-23T21:46:23.237Z,24.69
2018-07-23T21:49:26.139Z,24.77
2018-07-23T21:52:28.266Z,24.86
2018-07-23T21:55:30.335Z,24.85
2018-07-23T21:58:32.287Z,24.78
2018-07-23T22:01:34.468Z,24.73
2018-07-23T22:04:36.527Z,24.65
2018-07-23T22:07:38.848Z,24.63
2018-07-23T22:10:40.814Z,24.47
2018-07-23T22:13:43.940Z,24.39
2018-07-23T22:16:47.008Z,24.37
2018-07-23T22:19:49.075Z,24.39
2018-07-23T22:22:51.381Z,24.30
2018-07-23T22:25:53.522Z,24.32
2018-07-23T22:28:56.177Z,24.24
2018-07-23T22:31:58.159Z,24.17
2018-07-23T22:35:02.322Z,24.10
2018-07-23T22:38:04.483Z,24.03
2018-07-23T22:41:06.621Z,24.03
2018-07-23T22:44:08.703Z,23.97
2018-07-23T22:47:11.073Z,23.93
2018-07-23T22:50:13.203Z,23.91
2018-07-23T22:53:15.191Z,23.89
2018-07-23T22:56:21.945Z,23.83
2018-07-23T22:59:23.851Z,23.69
2018-07-23T23:02:26.585Z,23.60
2018-07-23T23:05:28.730Z,23.48
2018-07-23T23:08:30.755Z,23.42
2018-07-23T23:11:32.859Z,23.41
2018-07-23T23:14:34.935Z,23.39
2018-07-23T23:17:37.045Z,23.39
2018-07-23T23:20:39.300Z,23.39
2018-07-23T23:23:41.409Z,23.38
2018-07-23T23:26:43.496Z,23.38
2018-07-23T23:29:45.467Z,23.40
2018-07-23T23:32:47.523Z,23.35
2018-07-23T23:35:49.583Z,23.29
2018-07-23T23:38:52.696Z,23.23
2018-07-23T23:41:54.743Z,23.17
2018-07-23T23:44:57.837Z,23.13
2018-07-23T23:47:59.983Z,23.11
2018-07-23T23:51:01.966Z,23.04
2018-07-23T23:54:04.068Z,23.01
2018-07-23T23:57:06.245Z,22.98
